Maarn, Netherlands
Current Conditions -  °F | °C
As of 1:55 AM on Sunday 23 Nov 2014 (Local Time) from EHDL Reporting Station
Haze Haze  
Wind Chill: 46°   Ceiling: 14000
Heat Index: 48°   Visibility: 5mi
Dew Point: 46°   Wind: 5mph
Humidity: 93%   Direction: 140°SE
Pressure: 30.03"   Gusts: NA
Location:  52.06°N, 5.37°E
Report Text: EHDL 230055Z AUTO 14004KT 8000 BR OVC140 09/08 Q1017 BLU
Loading
Personal Weather Stations






























Interactive Weather Map New forecast layout! Learn more

10-Day Weather Forecast

Advertisements
Track Severe Weather on mobile